createdAt,value
2024-05-09T00:00:38.930Z,8.94
2024-05-09T00:01:37.408Z,8.94
2024-05-09T00:02:41.624Z,8.88
2024-05-09T00:03:45.619Z,8.75
2024-05-09T00:04:49.958Z,8.81
2024-05-09T00:05:54.424Z,8.75
2024-05-09T00:06:59.740Z,8.81
2024-05-09T00:08:03.887Z,8.81
2024-05-09T00:09:08.377Z,8.88
2024-05-09T00:10:22.258Z,8.88
2024-05-09T00:11:17.181Z,8.75
2024-05-09T00:12:21.376Z,8.75
2024-05-09T00:13:25.490Z,8.69
2024-05-09T00:14:30.060Z,8.50
2024-05-09T00:15:35.227Z,8.63
2024-05-09T00:16:38.702Z,8.50
2024-05-09T00:17:42.999Z,8.50
2024-05-09T00:18:47.150Z,8.56
2024-05-09T00:19:51.709Z,8.63
2024-05-09T00:20:56.296Z,8.63
2024-05-09T00:22:00.058Z,8.50
2024-05-09T00:23:04.385Z,8.38
2024-05-09T00:24:08.714Z,8.31
2024-05-09T00:25:13.286Z,8.25
2024-05-09T00:26:17.708Z,8.13
2024-05-09T00:27:21.923Z,8.19
2024-05-09T00:28:26.549Z,8.19
2024-05-09T00:29:30.724Z,8.13
2024-05-09T00:30:36.946Z,8.13
2024-05-09T00:31:39.336Z,8.06
2024-05-09T00:32:43.904Z,8.06
2024-05-09T00:33:48.169Z,8.06
2024-05-09T00:34:52.123Z,8.13
2024-05-09T00:35:56.407Z,8.13
2024-05-09T00:37:02.261Z,8.13
2024-05-09T00:38:06.923Z,8.13
2024-05-09T00:39:10.643Z,8.00
2024-05-09T00:40:22.483Z,7.75
2024-05-09T00:41:19.900Z,7.87
2024-05-09T00:42:23.631Z,7.94
2024-05-09T00:43:27.710Z,8.06
2024-05-09T00:44:32.350Z,8.13
2024-05-09T00:45:36.678Z,8.13
2024-05-09T00:46:41.251Z,8.19
2024-05-09T00:47:45.700Z,8.19
2024-05-09T00:48:49.798Z,8.19
2024-05-09T00:49:53.888Z,8.13
2024-05-09T00:50:58.176Z,8.06
2024-05-09T00:52:02.747Z,8.13
2024-05-09T00:53:07.087Z,8.19
2024-05-09T00:54:11.443Z,8.19
2024-05-09T00:55:15.791Z,8.19
2024-05-09T00:56:20.407Z,8.13
2024-05-09T00:57:24.183Z,8.13
2024-05-09T00:58:28.496Z,8.13
2024-05-09T00:59:33.149Z,8.06
2024-05-09T01:00:39.845Z,7.87
2024-05-09T01:01:41.998Z,7.87
2024-05-09T01:02:46.183Z,7.81
2024-05-09T01:03:51.295Z,7.81
2024-05-09T01:04:54.853Z,7.87
2024-05-09T01:05:59.367Z,7.94
2024-05-09T01:07:04.690Z,7.87
2024-05-09T01:08:09.136Z,7.87
2024-05-09T01:09:13.072Z,7.75
2024-05-09T01:10:23.874Z,7.69
2024-05-09T01:11:21.567Z,7.69
2024-05-09T01:12:26.133Z,7.62
2024-05-09T01:13:30.463Z,7.56
2024-05-09T01:14:35.030Z,7.56
2024-05-09T01:15:38.795Z,7.56
2024-05-09T01:16:43.473Z,7.50
2024-05-09T01:17:47.752Z,7.44
2024-05-09T01:18:52.306Z,7.50
2024-05-09T01:19:56.191Z,7.50
2024-05-09T01:21:00.521Z,7.56
2024-05-09T01:22:05.040Z,7.37
2024-05-09T01:23:10.170Z,7.44
2024-05-09T01:24:13.448Z,7.44
2024-05-09T01:25:18.050Z,7.44
2024-05-09T01:26:22.189Z,7.37
2024-05-09T01:27:26.752Z,7.25
2024-05-09T01:28:30.812Z,7.25
2024-05-09T01:29:35.452Z,7.25
2024-05-09T01:30:40.030Z,7.25
2024-05-09T01:31:44.200Z,7.31
2024-05-09T01:32:48.811Z,7.37
2024-05-09T01:33:52.868Z,7.37
2024-05-09T01:34:57.191Z,7.19
2024-05-09T01:36:01.499Z,7.25
2024-05-09T01:37:06.849Z,7.25
2024-05-09T01:38:10.926Z,7.25
2024-05-09T01:39:15.773Z,7.25
2024-05-09T01:40:28.541Z,7.31
2024-05-09T01:41:24.392Z,7.31
2024-05-09T01:42:28.216Z,7.31
2024-05-09T01:43:32.816Z,7.19
2024-05-09T01:44:36.931Z,7.12
2024-05-09T01:45:41.559Z,7.12
2024-05-09T01:46:45.713Z,7.12
2024-05-09T01:47:50.384Z,7.06
2024-05-09T01:48:54.929Z,7.00
2024-05-09T01:49:59.167Z,7.00
2024-05-09T01:51:03.211Z,7.00
2024-05-09T01:52:07.217Z,7.06
2024-05-09T01:53:12.237Z,7.12
2024-05-09T01:54:15.912Z,7.06
2024-05-09T01:55:20.520Z,6.87
2024-05-09T01:56:24.941Z,6.94
2024-05-09T01:57:29.453Z,6.94
2024-05-09T01:58:33.539Z,6.87
2024-05-09T01:59:38.233Z,6.87
2024-05-09T02:00:43.407Z,6.81
2024-05-09T02:01:56.508Z,6.81
2024-05-09T02:02:50.816Z,6.81
2024-05-09T02:03:55.493Z,6.81
2024-05-09T02:04:59.654Z,6.87
2024-05-09T02:06:04.028Z,6.87
2024-05-09T02:07:09.501Z,6.94
2024-05-09T02:08:13.905Z,7.00
2024-05-09T02:09:17.674Z,7.06
2024-05-09T02:10:26.531Z,7.06
2024-05-09T02:11:26.721Z,7.00
2024-05-09T02:12:30.904Z,6.94
2024-05-09T02:13:35.279Z,6.87
2024-05-09T02:14:39.401Z,6.87
2024-05-09T02:15:44.318Z,6.94
2024-05-09T02:16:48.320Z,6.87
2024-05-09T02:17:52.592Z,6.87
2024-05-09T02:18:57.047Z,6.87
2024-05-09T02:20:01.413Z,6.94
2024-05-09T02:21:05.543Z,6.94
2024-05-09T02:22:10.004Z,6.94
2024-05-09T02:23:14.448Z,6.87
2024-05-09T02:24:18.947Z,6.81
2024-05-09T02:25:23.035Z,6.81
2024-05-09T02:26:27.714Z,6.81
2024-05-09T02:27:31.434Z,6.81
2024-05-09T02:28:35.772Z,6.81
2024-05-09T02:29:40.155Z,6.81
2024-05-09T02:30:44.448Z,6.87
2024-05-09T02:31:49.101Z,6.87
2024-05-09T02:32:53.490Z,6.87
2024-05-09T02:33:58.078Z,6.87
2024-05-09T02:35:02.119Z,6.81
2024-05-09T02:36:06.367Z,6.75
2024-05-09T02:37:11.956Z,6.69
2024-05-09T02:38:15.816Z,6.62
2024-05-09T02:39:20.374Z,6.50
2024-05-09T02:40:33.268Z,6.50
2024-05-09T02:41:28.819Z,6.25
2024-05-09T02:42:33.368Z,6.31
2024-05-09T02:43:37.979Z,6.31
2024-05-09T02:44:42.041Z,6.37
2024-05-09T02:45:46.121Z,6.37
2024-05-09T02:46:50.738Z,6.31
2024-05-09T02:47:55.259Z,6.31
2024-05-09T02:48:59.267Z,6.31
2024-05-09T02:50:06.017Z,6.37
2024-05-09T02:51:08.075Z,6.31
2024-05-09T02:52:12.383Z,6.31
2024-05-09T02:53:16.731Z,6.19
2024-05-09T02:54:21.010Z,6.19
2024-05-09T02:55:25.089Z,6.12
2024-05-09T02:56:29.785Z,6.06
2024-05-09T02:57:34.004Z,6.06
2024-05-09T02:58:38.051Z,6.06
2024-05-09T02:59:42.485Z,6.06
2024-05-09T03:00:47.276Z,6.12
2024-05-09T03:01:51.667Z,6.12
2024-05-09T03:02:56.000Z,6.12
2024-05-09T03:04:00.043Z,6.12
2024-05-09T03:05:04.280Z,6.19
2024-05-09T03:06:08.322Z,6.19
2024-05-09T03:07:13.895Z,6.25
2024-05-09T03:08:18.434Z,6.25
2024-05-09T03:09:22.533Z,6.25
2024-05-09T03:10:29.046Z,6.19
2024-05-09T03:11:31.084Z,6.19
2024-05-09T03:12:37.977Z,6.19
2024-05-09T03:13:40.100Z,6.19
2024-05-09T03:14:44.222Z,6.06
2024-05-09T03:15:48.278Z,6.06
2024-05-09T03:16:52.888Z,5.94
2024-05-09T03:17:57.575Z,6.00
2024-05-09T03:19:01.654Z,6.00
2024-05-09T03:20:11.642Z,6.00
2024-05-09T03:21:10.235Z,6.06
2024-05-09T03:22:14.238Z,6.06
2024-05-09T03:23:18.843Z,6.06
2024-05-09T03:24:22.909Z,6.06
2024-05-09T03:25:27.462Z,6.06
2024-05-09T03:26:31.891Z,6.06
2024-05-09T03:27:36.384Z,6.06
2024-05-09T03:28:40.681Z,5.94
2024-05-09T03:29:44.754Z,5.87
2024-05-09T03:30:49.082Z,5.87
2024-05-09T03:31:53.210Z,5.87
2024-05-09T03:32:57.860Z,5.87
2024-05-09T03:34:02.025Z,5.87
2024-05-09T03:35:06.382Z,5.87
2024-05-09T03:36:11.486Z,5.87
2024-05-09T03:37:16.511Z,5.87
2024-05-09T03:38:20.078Z,5.87
2024-05-09T03:39:24.624Z,5.87
2024-05-09T03:40:30.917Z,5.81
2024-05-09T03:41:33.450Z,5.75
2024-05-09T03:42:37.588Z,5.69
2024-05-09T03:43:41.652Z,5.56
2024-05-09T03:44:45.967Z,5.62
2024-05-09T03:45:50.561Z,5.50
2024-05-09T03:46:55.161Z,5.37
2024-05-09T03:47:59.435Z,5.37
2024-05-09T03:49:03.370Z,5.50
2024-05-09T03:50:15.217Z,5.50
2024-05-09T03:51:12.379Z,5.44
2024-05-09T03:52:16.231Z,5.44
2024-05-09T03:53:20.882Z,5.44
2024-05-09T03:54:25.423Z,5.50
2024-05-09T03:55:29.802Z,5.37
2024-05-09T03:56:33.595Z,5.31
2024-05-09T03:57:38.119Z,5.50
2024-05-09T03:58:42.170Z,5.44
2024-05-09T03:59:46.729Z,5.50
2024-05-09T04:00:51.038Z,5.50
2024-05-09T04:01:55.146Z,5.44
2024-05-09T04:02:59.894Z,5.56
2024-05-09T04:04:04.266Z,5.62
2024-05-09T04:05:08.188Z,5.62
2024-05-09T04:06:12.576Z,5.62
2024-05-09T04:07:17.989Z,5.69
2024-05-09T04:08:21.826Z,5.69
2024-05-09T04:09:26.292Z,5.69
2024-05-09T04:10:33.778Z,5.75
2024-05-09T04:11:35.015Z,5.69
2024-05-09T04:12:39.248Z,5.69
2024-05-09T04:13:43.465Z,5.69
2024-05-09T04:14:47.717Z,5.69
2024-05-09T04:15:51.990Z,5.69
2024-05-09T04:16:56.045Z,5.69
2024-05-09T04:18:01.136Z,5.69
2024-05-09T04:19:04.940Z,5.69
2024-05-09T04:20:12.443Z,5.62
2024-05-09T04:21:13.140Z,5.69
2024-05-09T04:22:17.920Z,5.62
2024-05-09T04:23:22.253Z,5.56
2024-05-09T04:24:26.217Z,5.56
2024-05-09T04:25:30.250Z,5.56
2024-05-09T04:26:34.650Z,5.44
2024-05-09T04:27:39.079Z,5.50
2024-05-09T04:28:43.122Z,5.50
2024-05-09T04:29:47.379Z,5.56
2024-05-09T04:30:52.193Z,5.62
2024-05-09T04:31:56.577Z,5.69
2024-05-09T04:33:00.598Z,5.69
2024-05-09T04:34:05.000Z,5.69
2024-05-09T04:35:09.124Z,5.75
2024-05-09T04:36:13.404Z,5.81
2024-05-09T04:37:18.975Z,5.81
2024-05-09T04:38:22.837Z,5.75
2024-05-09T04:39:27.053Z,5.75
2024-05-09T04:40:35.088Z,5.75
2024-05-09T04:41:35.957Z,5.69
2024-05-09T04:42:39.934Z,5.62
2024-05-09T04:43:44.316Z,5.50
2024-05-09T04:44:48.535Z,5.50
2024-05-09T04:45:53.091Z,5.56
2024-05-09T04:46:57.142Z,5.75
2024-05-09T04:48:02.379Z,5.94
2024-05-09T04:49:06.037Z,6.12
2024-05-09T04:50:14.511Z,6.19
2024-05-09T04:51:14.616Z,6.31
2024-05-09T04:52:18.899Z,6.44
2024-05-09T04:53:23.458Z,6.56
2024-05-09T04:54:34.223Z,6.75
2024-05-09T04:55:31.607Z,6.75
2024-05-09T04:56:35.965Z,6.87
2024-05-09T04:57:40.440Z,6.94
2024-05-09T04:58:44.781Z,6.94
2024-05-09T04:59:49.352Z,6.94
2024-05-09T05:00:53.219Z,7.00
2024-05-09T05:01:57.577Z,7.12
2024-05-09T05:03:02.192Z,7.19
2024-05-09T05:04:06.376Z,7.25
2024-05-09T05:05:11.957Z,7.31
2024-05-09T05:06:14.892Z,7.37
2024-05-09T05:07:20.509Z,7.31
2024-05-09T05:08:24.832Z,7.50
2024-05-09T05:09:28.563Z,7.56
2024-05-09T05:10:35.969Z,7.56
2024-05-09T05:11:37.490Z,7.62
2024-05-09T05:12:41.437Z,7.69
2024-05-09T05:13:46.015Z,7.81
2024-05-09T05:14:50.007Z,7.81
2024-05-09T05:15:54.531Z,7.81
2024-05-09T05:16:58.862Z,7.81
2024-05-09T05:18:03.524Z,7.94
2024-05-09T05:19:10.126Z,8.06
2024-05-09T05:20:15.375Z,8.19
2024-05-09T05:21:15.877Z,8.19
2024-05-09T05:22:20.049Z,8.06
2024-05-09T05:23:24.553Z,8.06
2024-05-09T05:24:28.885Z,8.19
2024-05-09T05:25:33.457Z,8.19
2024-05-09T05:26:37.582Z,8.38
2024-05-09T05:27:42.026Z,8.38
2024-05-09T05:28:46.120Z,8.50
2024-05-09T05:29:50.154Z,8.50
2024-05-09T05:30:54.696Z,8.50
2024-05-09T05:31:59.066Z,8.50
2024-05-09T05:33:03.373Z,8.50
2024-05-09T05:34:07.372Z,8.63
2024-05-09T05:35:12.195Z,8.69
2024-05-09T05:36:16.189Z,8.69
2024-05-09T05:37:21.734Z,8.69
2024-05-09T05:38:28.133Z,8.75
2024-05-09T05:39:30.115Z,8.81
2024-05-09T05:40:37.210Z,9.00
2024-05-09T05:41:38.721Z,9.06
2024-05-09T05:42:42.709Z,9.00
2024-05-09T05:43:47.369Z,9.06
2024-05-09T05:44:51.878Z,9.06
2024-05-09T05:45:55.818Z,9.00
2024-05-09T05:46:59.890Z,8.94
2024-05-09T05:48:04.798Z,9.06
2024-05-09T05:49:08.532Z,9.19
2024-05-09T05:50:23.692Z,9.25
2024-05-09T05:51:17.424Z,9.38
2024-05-09T05:52:21.230Z,9.44
2024-05-09T05:53:26.086Z,9.63
2024-05-09T05:54:30.092Z,9.81
2024-05-09T05:55:34.396Z,9.88
2024-05-09T05:56:38.696Z,10.00
2024-05-09T05:57:42.913Z,10.13
2024-05-09T05:58:47.070Z,10.13
2024-05-09T05:59:51.523Z,10.19
2024-05-09T06:00:55.577Z,10.19
2024-05-09T06:01:59.879Z,10.31
2024-05-09T06:03:04.699Z,10.44
2024-05-09T06:04:09.045Z,10.56
2024-05-09T06:05:12.892Z,10.69
2024-05-09T06:06:17.086Z,10.88
2024-05-09T06:07:22.881Z,10.81
2024-05-09T06:08:30.200Z,10.69
2024-05-09T06:09:31.288Z,10.81
2024-05-09T06:10:39.272Z,10.63
2024-05-09T06:11:39.934Z,10.63
2024-05-09T06:12:44.419Z,10.50
2024-05-09T06:13:48.223Z,10.44
2024-05-09T06:14:52.556Z,10.56
2024-05-09T06:15:57.108Z,10.56
2024-05-09T06:17:01.430Z,10.75
2024-05-09T06:18:06.213Z,10.69
2024-05-09T06:19:09.826Z,10.81
2024-05-09T06:20:20.654Z,10.69
2024-05-09T06:21:18.695Z,10.81
2024-05-09T06:22:23.270Z,10.94
2024-05-09T06:23:27.109Z,10.94
2024-05-09T06:24:31.413Z,11.00
2024-05-09T06:25:36.032Z,11.06
2024-05-09T06:26:40.095Z,11.12
2024-05-09T06:27:44.396Z,11.06
2024-05-09T06:28:49.002Z,11.12
2024-05-09T06:29:53.270Z,11.12
2024-05-09T06:30:57.859Z,11.19
2024-05-09T06:32:01.730Z,11.25
2024-05-09T06:33:06.493Z,11.56
2024-05-09T06:34:10.645Z,11.69
2024-05-09T06:35:14.918Z,11.69
2024-05-09T06:36:19.205Z,11.75
2024-05-09T06:37:24.774Z,11.88
2024-05-09T06:38:28.823Z,11.94
2024-05-09T06:39:33.368Z,11.69
2024-05-09T06:40:39.567Z,11.94
2024-05-09T06:41:41.570Z,11.94
2024-05-09T06:42:45.823Z,11.81
2024-05-09T06:43:50.178Z,11.69
2024-05-09T06:44:54.495Z,11.63
2024-05-09T06:45:58.784Z,11.75
2024-05-09T06:47:03.418Z,11.69
2024-05-09T06:48:07.933Z,12.00
2024-05-09T06:49:12.511Z,12.06
2024-05-09T06:50:23.420Z,11.81
2024-05-09T06:51:20.469Z,11.75
2024-05-09T06:52:24.772Z,11.94
2024-05-09T06:53:29.440Z,11.88
2024-05-09T06:54:33.681Z,11.88
2024-05-09T06:55:38.225Z,11.88
2024-05-09T06:56:42.419Z,11.94
2024-05-09T06:57:46.941Z,12.25
2024-05-09T06:58:51.099Z,12.37
2024-05-09T06:59:55.024Z,12.44
2024-05-09T07:00:59.344Z,12.88
2024-05-09T07:02:03.675Z,13.25
2024-05-09T07:03:08.131Z,13.31
2024-05-09T07:04:12.275Z,13.25
2024-05-09T07:05:16.540Z,13.44
2024-05-09T07:06:20.995Z,13.69
2024-05-09T07:07:26.522Z,13.88
2024-05-09T07:08:30.408Z,14.06
2024-05-09T07:09:34.566Z,14.25
2024-05-09T07:10:39.117Z,14.31
2024-05-09T07:11:43.272Z,14.63
2024-05-09T07:12:47.655Z,14.69
2024-05-09T07:13:51.730Z,14.75
2024-05-09T07:14:56.473Z,14.81
2024-05-09T07:16:00.515Z,14.81
2024-05-09T07:17:04.965Z,14.63
2024-05-09T07:18:09.384Z,14.50
2024-05-09T07:19:13.432Z,14.63
2024-05-09T07:20:23.667Z,15.00
2024-05-09T07:21:21.871Z,14.81
2024-05-09T07:22:26.402Z,15.00
2024-05-09T07:23:30.751Z,15.19
2024-05-09T07:24:35.197Z,15.38
2024-05-09T07:25:39.472Z,15.25
2024-05-09T07:26:43.312Z,15.25
2024-05-09T07:27:47.795Z,15.00
2024-05-09T07:28:52.138Z,15.25
2024-05-09T07:29:56.385Z,15.38
2024-05-09T07:31:00.666Z,15.63
2024-05-09T07:32:04.761Z,15.88
2024-05-09T07:33:09.429Z,15.88
2024-05-09T07:34:13.990Z,15.50
2024-05-09T07:35:17.844Z,15.50
2024-05-09T07:36:21.855Z,15.63
2024-05-09T07:37:27.690Z,15.75
2024-05-09T07:38:31.848Z,16.06
2024-05-09T07:39:35.780Z,16.12
2024-05-09T07:40:40.364Z,16.06
2024-05-09T07:41:45.435Z,16.19
2024-05-09T07:42:49.848Z,16.37
2024-05-09T07:43:53.686Z,16.19
2024-05-09T07:45:14.720Z,15.63
2024-05-09T07:46:51.842Z,15.50
2024-05-09T07:48:14.502Z,15.63
2024-05-09T07:49:44.580Z,15.75
2024-05-09T07:53:32.476Z,16.19
2024-05-09T07:53:40.847Z,16.56
2024-05-09T07:54:37.009Z,16.69
2024-05-09T07:55:41.246Z,16.94
2024-05-09T07:56:45.733Z,16.87
2024-05-09T07:57:49.733Z,17.00
2024-05-09T07:58:54.412Z,17.12
2024-05-09T07:59:58.828Z,17.06
2024-05-09T08:01:03.273Z,17.12
2024-05-09T08:02:07.403Z,17.50
2024-05-09T08:03:51.163Z,17.44
2024-05-09T08:04:56.251Z,17.19
2024-05-09T08:06:00.419Z,17.06
2024-05-09T08:07:04.806Z,17.00
2024-05-09T08:08:09.291Z,16.75
2024-05-09T08:09:19.430Z,16.75
2024-05-09T08:10:22.182Z,17.19
2024-05-09T08:11:22.291Z,17.44
2024-05-09T08:12:26.360Z,17.81
2024-05-09T08:13:30.857Z,17.69
2024-05-09T08:14:35.149Z,17.81
2024-05-09T08:15:39.278Z,17.62
2024-05-09T08:16:43.516Z,17.37
2024-05-09T08:17:48.162Z,17.44
2024-05-09T08:18:52.549Z,17.37
2024-05-09T08:19:56.709Z,17.62
2024-05-09T08:21:00.725Z,17.87
2024-05-09T08:22:05.081Z,17.81
2024-05-09T08:23:09.352Z,17.81
2024-05-09T08:24:13.916Z,17.69
2024-05-09T08:25:18.339Z,17.56
2024-05-09T08:26:22.531Z,17.69
2024-05-09T08:27:26.891Z,17.62
2024-05-09T08:28:31.382Z,17.50
2024-05-09T08:29:35.429Z,17.12
2024-05-09T08:30:39.904Z,17.00
2024-05-09T08:31:44.287Z,16.81
2024-05-09T08:32:48.229Z,17.00
2024-05-09T08:33:48.744Z,17.00
2024-05-09T08:34:52.838Z,17.12
2024-05-09T08:35:57.090Z,17.31
2024-05-09T08:37:06.173Z,17.75
2024-05-09T08:38:05.961Z,17.75
2024-05-09T08:39:10.315Z,17.87
2024-05-09T08:40:23.407Z,18.06
2024-05-09T08:41:18.398Z,18.44
2024-05-09T08:42:22.996Z,18.69
2024-05-09T08:43:27.338Z,18.87
2024-05-09T08:44:31.586Z,19.06
2024-05-09T08:45:35.744Z,19.00
2024-05-09T08:46:40.245Z,19.00
2024-05-09T08:47:44.617Z,18.69
2024-05-09T08:48:49.060Z,18.25
2024-05-09T08:49:53.238Z,18.19
2024-05-09T08:50:57.234Z,18.31
2024-05-09T08:52:01.834Z,18.31
2024-05-09T08:53:06.024Z,18.44
2024-05-09T08:54:10.411Z,18.56
2024-05-09T08:55:14.794Z,18.94
2024-05-09T08:56:18.751Z,19.19
2024-05-09T08:57:23.607Z,19.37
2024-05-09T08:58:27.668Z,19.37
2024-05-09T08:59:31.726Z,18.94
2024-05-09T09:00:37.461Z,19.12
2024-05-09T09:01:41.300Z,19.50
2024-05-09T09:02:44.838Z,19.75
2024-05-09T09:03:44.840Z,19.81
2024-05-09T09:04:49.108Z,20.00
2024-05-09T09:05:53.659Z,20.00
2024-05-09T09:06:58.772Z,19.75
2024-05-09T09:08:02.199Z,19.81
2024-05-09T09:09:06.752Z,19.81
2024-05-09T09:10:17.586Z,20.00
2024-05-09T09:11:14.894Z,20.00
2024-05-09T09:12:19.441Z,20.12
2024-05-09T09:13:23.796Z,20.25
2024-05-09T09:14:28.044Z,20.31
2024-05-09T09:15:32.557Z,20.37
2024-05-09T09:16:36.388Z,20.37
2024-05-09T09:17:41.018Z,20.31
2024-05-09T09:18:45.399Z,20.37
2024-05-09T09:19:49.855Z,19.75
2024-05-09T09:20:53.860Z,19.56
2024-05-09T09:21:58.200Z,19.44
2024-05-09T09:23:02.510Z,19.81
2024-05-09T09:24:08.701Z,19.62
2024-05-09T09:25:11.162Z,19.56
2024-05-09T09:26:15.186Z,19.37
2024-05-09T09:27:20.003Z,19.37
2024-05-09T09:28:24.068Z,19.62
2024-05-09T09:29:28.082Z,19.81
2024-05-09T09:30:37.292Z,19.94
2024-05-09T09:31:36.980Z,20.12
2024-05-09T09:32:41.335Z,19.94
2024-05-09T09:33:41.358Z,20.12
2024-05-09T09:34:45.512Z,20.06
2024-05-09T09:35:49.903Z,20.19
2024-05-09T09:36:54.276Z,20.31
2024-05-09T09:37:58.231Z,20.31
2024-05-09T09:39:02.794Z,20.37
2024-05-09T09:40:07.380Z,20.06
2024-05-09T09:41:11.470Z,20.44
2024-05-09T09:42:15.723Z,20.56
2024-05-09T09:43:19.825Z,20.50
2024-05-09T09:44:24.297Z,20.31
2024-05-09T09:45:28.645Z,20.31
2024-05-09T09:46:33.848Z,20.12
2024-05-09T09:47:32.970Z,20.19
2024-05-09T09:48:37.459Z,20.31
2024-05-09T09:49:41.800Z,20.19
2024-05-09T09:50:46.231Z,20.06
2024-05-09T09:51:50.585Z,19.62
2024-05-09T09:52:54.361Z,19.12
2024-05-09T09:53:58.922Z,19.25
2024-05-09T09:55:03.403Z,19.87
2024-05-09T09:56:07.273Z,20.25
2024-05-09T09:57:11.587Z,20.37
2024-05-09T09:58:15.926Z,20.69
2024-05-09T09:59:20.239Z,20.81
2024-05-09T10:00:30.664Z,20.75
2024-05-09T10:01:29.175Z,20.69
2024-05-09T10:02:33.364Z,20.88
2024-05-09T10:03:33.963Z,20.62
2024-05-09T10:04:37.970Z,20.69
2024-05-09T10:05:45.101Z,20.94
2024-05-09T10:06:46.588Z,21.06
2024-05-09T10:07:50.792Z,21.00
2024-05-09T10:08:55.109Z,21.00
2024-05-09T10:09:59.208Z,21.12
2024-05-09T10:11:05.176Z,21.25
2024-05-09T10:12:04.239Z,21.19
2024-05-09T10:13:08.789Z,21.00
2024-05-09T10:14:12.790Z,20.88
2024-05-09T10:15:17.091Z,20.88
2024-05-09T10:16:21.082Z,20.75
2024-05-09T10:17:25.636Z,21.12
2024-05-09T10:18:31.973Z,21.37
2024-05-09T10:19:34.159Z,21.50
2024-05-09T10:20:38.455Z,21.31
2024-05-09T10:21:42.825Z,21.00
2024-05-09T10:22:46.837Z,20.88
2024-05-09T10:23:51.670Z,20.81
2024-05-09T10:24:55.502Z,20.75
2024-05-09T10:26:00.095Z,21.00
2024-05-09T10:27:04.117Z,21.25
2024-05-09T10:28:08.635Z,21.37
2024-05-09T10:29:13.018Z,21.25
2024-05-09T10:30:25.831Z,21.44
2024-05-09T10:31:21.721Z,21.62
2024-05-09T10:32:26.078Z,21.37
2024-05-09T10:33:26.019Z,21.44
2024-05-09T10:34:30.297Z,21.00
2024-05-09T10:35:35.034Z,21.25
2024-05-09T10:36:38.895Z,21.50
2024-05-09T10:37:43.430Z,21.56
2024-05-09T10:38:47.750Z,21.37
2024-05-09T10:39:51.820Z,21.25
2024-05-09T10:40:56.377Z,21.12
2024-05-09T10:42:00.719Z,21.37
2024-05-09T10:43:06.450Z,21.50
2024-05-09T10:44:09.595Z,21.62
2024-05-09T10:45:13.659Z,21.69
2024-05-09T10:46:17.878Z,21.81
2024-05-09T10:47:22.316Z,21.81
2024-05-09T10:48:26.700Z,21.50
2024-05-09T10:49:30.793Z,21.25
2024-05-09T10:50:35.107Z,21.19
2024-05-09T10:51:39.390Z,21.12
2024-05-09T10:52:43.887Z,21.31
2024-05-09T10:53:48.607Z,21.12
2024-05-09T10:54:52.886Z,21.19
2024-05-09T10:55:56.828Z,21.31
2024-05-09T10:57:01.171Z,21.37
2024-05-09T10:58:05.287Z,21.00
2024-05-09T10:59:09.534Z,20.75
2024-05-09T11:00:19.472Z,20.69
2024-05-09T11:01:18.486Z,20.75
2024-05-09T11:02:22.964Z,21.06
2024-05-09T11:03:23.110Z,21.19
2024-05-09T11:04:27.096Z,21.69
2024-05-09T11:05:31.702Z,21.81
2024-05-09T11:06:35.678Z,22.19
2024-05-09T11:07:39.888Z,22.37
2024-05-09T11:08:44.472Z,22.31
2024-05-09T11:09:48.817Z,22.31
2024-05-09T11:10:53.384Z,22.56
2024-05-09T11:11:57.190Z,22.75
2024-05-09T11:13:01.540Z,22.62
2024-05-09T11:14:06.058Z,22.56
2024-05-09T11:15:10.378Z,22.44
2024-05-09T11:16:14.496Z,22.31
2024-05-09T11:17:19.113Z,22.25
2024-05-09T11:18:24.949Z,22.50
2024-05-09T11:19:27.779Z,22.44
2024-05-09T11:20:34.751Z,22.56
2024-05-09T11:21:36.019Z,22.87
2024-05-09T11:22:40.375Z,22.69
2024-05-09T11:23:45.153Z,22.56
2024-05-09T11:24:49.120Z,22.69
2024-05-09T11:25:53.306Z,22.19
2024-05-09T11:26:57.870Z,22.19
2024-05-09T11:28:02.344Z,22.19
2024-05-09T11:29:06.240Z,22.31
2024-05-09T11:30:17.257Z,22.31
2024-05-09T11:31:14.919Z,22.62
2024-05-09T11:32:19.515Z,22.37
2024-05-09T11:33:19.951Z,22.25
2024-05-09T11:34:23.960Z,22.31
2024-05-09T11:35:28.477Z,22.75
2024-05-09T11:36:32.349Z,22.87
2024-05-09T11:40:34.165Z,22.87
2024-05-09T11:41:34.253Z,23.19
2024-05-09T11:42:38.334Z,23.38
2024-05-09T11:43:42.873Z,23.38
2024-05-09T11:44:46.937Z,23.06
2024-05-09T11:45:51.543Z,23.06
2024-05-09T11:46:55.811Z,23.12
2024-05-09T11:47:59.995Z,23.00
2024-05-09T11:49:04.644Z,23.19
2024-05-09T11:50:12.988Z,23.25
2024-05-09T11:51:13.108Z,23.31
2024-05-09T11:52:17.211Z,23.31
2024-05-09T11:53:21.739Z,23.06
2024-05-09T11:54:25.784Z,22.56
2024-05-09T11:55:30.759Z,22.75
2024-05-09T11:56:34.431Z,22.75
2024-05-09T11:57:39.074Z,22.94
2024-05-09T11:58:43.065Z,22.81
2024-05-09T11:59:47.390Z,22.81
2024-05-09T12:00:52.078Z,22.69
2024-05-09T12:01:56.382Z,22.75
2024-05-09T12:03:00.372Z,22.94
2024-05-09T12:04:05.488Z,23.06
2024-05-09T12:05:09.386Z,23.06
2024-05-09T12:06:13.301Z,22.94
2024-05-09T12:07:18.006Z,22.94
2024-05-09T12:08:22.158Z,23.12
2024-05-09T12:09:25.973Z,23.00
2024-05-09T12:10:32.862Z,22.87
2024-05-09T12:11:30.940Z,22.44
2024-05-09T12:12:37.256Z,22.50
2024-05-09T12:13:39.252Z,22.25
2024-05-09T12:14:43.836Z,21.75
2024-05-09T12:15:48.396Z,21.81
2024-05-09T12:16:52.765Z,22.25
2024-05-09T12:19:00.928Z,22.37
2024-05-09T12:20:09.151Z,22.19
2024-05-09T12:21:09.696Z,21.94
2024-05-09T12:22:14.593Z,21.75
2024-05-09T12:23:18.336Z,22.06
2024-05-09T12:24:23.189Z,22.13
2024-05-09T12:25:27.242Z,22.06
2024-05-09T12:26:31.574Z,22.37
2024-05-09T12:27:35.646Z,22.69
2024-05-09T12:28:39.957Z,23.06
2024-05-09T12:29:44.529Z,22.81
2024-05-09T12:30:48.905Z,22.44
2024-05-09T12:31:54.111Z,22.25
2024-05-09T12:32:53.285Z,22.00
2024-05-09T12:33:57.374Z,21.87
2024-05-09T12:35:01.904Z,22.25
2024-05-09T12:36:06.239Z,22.62
2024-05-09T12:37:10.821Z,22.87
2024-05-09T12:38:15.441Z,22.94
2024-05-09T12:39:19.235Z,23.00
2024-05-09T12:40:26.759Z,23.12
2024-05-09T12:41:23.353Z,23.38
2024-05-09T12:42:29.093Z,23.31
2024-05-09T12:43:32.306Z,23.00
2024-05-09T12:44:36.339Z,22.87
2024-05-09T12:45:40.331Z,22.81
2024-05-09T12:46:45.248Z,22.50
2024-05-09T12:47:49.987Z,22.37
2024-05-09T12:48:54.631Z,22.25
2024-05-09T12:49:57.893Z,22.25
2024-05-09T12:51:02.486Z,22.37
2024-05-09T12:52:06.878Z,22.37
2024-05-09T12:53:11.136Z,22.37
2024-05-09T12:54:15.170Z,22.75
2024-05-09T12:55:19.511Z,22.81
2024-05-09T12:56:23.756Z,22.87
2024-05-09T12:57:28.686Z,22.81
2024-05-09T12:58:32.604Z,22.87
2024-05-09T12:59:36.655Z,23.06
2024-05-09T13:00:41.027Z,23.00
2024-05-09T13:01:45.535Z,23.12
2024-05-09T13:02:49.798Z,23.44
2024-05-09T13:03:54.195Z,23.19
2024-05-09T13:04:58.450Z,23.31
2024-05-09T13:06:02.673Z,23.25
2024-05-09T13:07:08.047Z,23.00
2024-05-09T13:08:11.243Z,23.00
2024-05-09T13:09:15.286Z,23.31
2024-05-09T13:10:23.097Z,22.94
2024-05-09T13:11:19.703Z,22.81
2024-05-09T13:12:24.401Z,22.87
2024-05-09T13:13:28.412Z,23.31
2024-05-09T13:14:32.670Z,23.56
2024-05-09T13:15:36.772Z,23.25
2024-05-09T13:16:41.373Z,23.62
2024-05-09T13:17:45.482Z,23.50
2024-05-09T13:18:50.397Z,23.62
2024-05-09T13:19:54.086Z,23.81
2024-05-09T13:20:58.355Z,23.81
2024-05-09T13:22:02.679Z,23.62
2024-05-09T13:23:07.924Z,23.56
2024-05-09T13:24:11.194Z,23.44
2024-05-09T13:25:15.307Z,23.25
2024-05-09T13:26:19.766Z,23.25
2024-05-09T13:27:24.311Z,23.12
2024-05-09T13:28:28.651Z,22.94
2024-05-09T13:29:32.446Z,22.87
2024-05-09T13:30:41.095Z,23.00
2024-05-09T13:31:41.306Z,22.94
2024-05-09T13:32:45.731Z,23.00
2024-05-09T13:33:49.764Z,22.94
2024-05-09T13:34:54.016Z,23.00
2024-05-09T13:35:58.609Z,22.94
2024-05-09T13:37:02.883Z,23.12
2024-05-09T13:38:07.459Z,23.06
2024-05-09T13:39:11.512Z,23.00
2024-05-09T13:40:14.242Z,23.12
2024-05-09T13:41:15.687Z,22.87
2024-05-09T13:42:19.998Z,22.75
2024-05-09T13:43:24.552Z,22.75
2024-05-09T13:44:28.919Z,22.25
2024-05-09T13:45:33.323Z,22.44
2024-05-09T13:46:37.311Z,22.69
2024-05-09T13:47:41.989Z,22.62
2024-05-09T13:48:46.359Z,22.81
2024-05-09T13:49:50.541Z,23.06
2024-05-09T13:50:54.583Z,23.31
2024-05-09T13:51:58.921Z,23.19
2024-05-09T13:53:03.568Z,22.87
2024-05-09T13:54:07.509Z,23.12
2024-05-09T13:55:12.067Z,23.31
2024-05-09T13:56:16.410Z,23.00
2024-05-09T13:57:20.465Z,23.06
2024-05-09T13:58:25.065Z,23.25
2024-05-09T13:59:29.116Z,23.12
2024-05-09T14:00:43.622Z,23.12
2024-05-09T14:01:38.058Z,23.06
2024-05-09T14:02:42.268Z,23.12
2024-05-09T14:03:46.579Z,22.87
2024-05-09T14:04:51.094Z,22.94
2024-05-09T14:05:55.265Z,23.25
2024-05-09T14:06:59.658Z,23.31